Corinthiakos — A8UL2 — position and weather

sailwx.info

Track history (hours):
 
Tides and Currents Weather Stations Pressure Air Temp Water Temp Dewpoint Dewpoint Depression Visibility Wind Speed Wind Dir Waves Ship Positions

Corinthiakos

Last reported at 2014-Oct-02 09:32 UTC. Time now 2014-Oct-02 10:28 UTC.
Position N 49°01' W 123°09'.

Length 262 m; draft 10.5 m.

Type: Cargo ship. MMSI: 636014516.

Date/timePositionNaut miles runAvg speedWind from/ knotsBaromVisibWave heightAir tempDewpointWater temp
2014-Oct-02 09:32N 49°01' W 123°09'0 0.0
2014-Oct-02 08:32N 49°01' W 123°09'2 2.5
2014-Oct-02 07:33N 48°59' W 123°09'1414.4
2014-Oct-02 06:34N 48°44' W 123°07'1717.3
2014-Oct-02 05:33N 48°27' W 123°10'1313.0
2014-Oct-02 04:33N 48°18' W 123°24'9 9.0
2014-Oct-02 03:33N 48°09' W 123°23'1616.4
2014-Oct-02 02:33N 48°12' W 122°59'1918.9
2014-Oct-02 01:33N 48°01' W 122°37'2020.4
2014-Oct-02 00:33N 47°41' W 122°27'8 7.5
2014-Oct-01 23:32N 47°35' W 122°21'0 0.0
2014-Oct-01 22:32N 47°35' W 122°21'0 0.0
2014-Oct-01 21:32N 47°35' W 122°21'0 0.0
2014-Oct-01 20:32N 47°35' W 122°21'0 0.0
2014-Oct-01 19:32N 47°35' W 122°21'0 0.0
2014-Oct-01 18:32N 47°35' W 122°21'0 0.0
2014-Oct-01 17:32N 47°35' W 122°21'0 0.0
2014-Oct-01 16:32N 47°35' W 122°21'0 0.0
2014-Oct-01 15:32N 47°35' W 122°21'0 0.0
2014-Oct-01 14:32N 47°35' W 122°21'0 0.0
2014-Oct-01 13:32N 47°35' W 122°21'0 0.0
2014-Oct-01 12:32N 47°35' W 122°21'0 0.0
2014-Oct-01 11:32N 47°35' W 122°21'0 0.0
2014-Oct-01 10:32N 47°35' W 122°21'0 0.0
2014-Oct-01 09:32N 47°35' W 122°21'0 0.0
2014-Oct-01 08:29N 47°35' W 122°21'0 0.0
2014-Oct-01 07:32N 47°35' W 122°21'0 0.0
2014-Oct-01 06:32N 47°35' W 122°21'0 0.0
2014-Oct-01 05:32N 47°35' W 122°21'0 0.0
2014-Oct-01 04:32N 47°35' W 122°21'0 0.0
2014-Oct-01 03:32N 47°35' W 122°21'0 0.0
2014-Oct-01 02:32N 47°35' W 122°21'0 0.0
2014-Oct-01 01:32N 47°35' W 122°21'0 0.0
2014-Oct-01 00:32N 47°35' W 122°21'0 0.0
2014-Sep-30 23:32N 47°35' W 122°21'0 0.0
2014-Sep-30 22:32N 47°35' W 122°21'0 0.0
2014-Sep-30 21:32N 47°35' W 122°21'0 0.0
2014-Sep-30 20:32N 47°35' W 122°21'0 0.0
2014-Sep-30 19:32N 47°35' W 122°21'0 0.0
2014-Sep-30 18:32N 47°35' W 122°21'0 0.0
2014-Sep-30 17:32N 47°35' W 122°21'0 0.0
2014-Sep-30 16:32N 47°35' W 122°21'0 0.0
2014-Sep-30 15:32N 47°35' W 122°21'0 0.0
2014-Sep-30 14:32N 47°35' W 122°21'0 0.0
2014-Sep-30 13:32N 47°35' W 122°21'0 0.2
2014-Sep-30 12:33N 47°35' W 122°21'3 2.8
2014-Sep-30 11:33N 47°37' W 122°24'1515.4
2014-Sep-30 10:33N 47°52' W 122°29'2019.2
2014-Sep-30 09:32N 48°09' W 122°43'2020.0
2014-Sep-30 08:33N 48°12' W 123°13'1212.3
2014-Sep-30 07:33N 48°12' W 123°31'1312.5
2014-Sep-30 06:33N 48°13' W 123°50'1212.1
2014-Sep-30 05:33N 48°17' W 124°07'1312.6
2014-Sep-30 04:32N 48°23' W 124°24'1313.0
2014-Sep-30 03:33N 48°28' W 124°42'1312.8
2014-Sep-30 02:33N 48°29' W 125°01'1313.3
2014-Sep-30 01:33N 48°29' W 125°21'1212.4
2014-Sep-30 00:33N 48°31' W 125°40'1312.7
2014-Sep-29 23:33N 48°34' W 125°58'1312.8
2014-Sep-29 22:33N 48°37' W 126°17'1312.7
2014-Sep-29 21:33N 48°40' W 126°36'  
Track history (hours):
 
Tides and Currents Weather Stations Pressure Air Temp Water Temp Dewpoint Dewpoint Depression Visibility Wind Speed Wind Dir Waves Ship Positions

Corinthiakos

Last reported at 2014-Oct-02 09:32 UTC. Time now 2014-Oct-02 10:28 UTC.
Position N 49°01' W 123°09'.

Length 262 m; draft 10.5 m.

Type: Cargo ship. MMSI: 636014516.

Date/timePositionNaut miles runAvg speedWind from/ knotsBaromVisibWave heightAir tempDewpointWater temp
2014-Oct-02 09:32N 49°01' W 123°09'0 0.0
2014-Oct-02 08:32N 49°01' W 123°09'2 2.5
2014-Oct-02 07:33N 48°59' W 123°09'1414.4
2014-Oct-02 06:34N 48°44' W 123°07'1717.3
2014-Oct-02 05:33N 48°27' W 123°10'1313.0
2014-Oct-02 04:33N 48°18' W 123°24'9 9.0
2014-Oct-02 03:33N 48°09' W 123°23'1616.4
2014-Oct-02 02:33N 48°12' W 122°59'1918.9
2014-Oct-02 01:33N 48°01' W 122°37'2020.4
2014-Oct-02 00:33N 47°41' W 122°27'8 7.5
2014-Oct-01 23:32N 47°35' W 122°21'0 0.0
2014-Oct-01 22:32N 47°35' W 122°21'0 0.0
2014-Oct-01 21:32N 47°35' W 122°21'0 0.0
2014-Oct-01 20:32N 47°35' W 122°21'0 0.0
2014-Oct-01 19:32N 47°35' W 122°21'0 0.0
2014-Oct-01 18:32N 47°35' W 122°21'0 0.0
2014-Oct-01 17:32N 47°35' W 122°21'0 0.0
2014-Oct-01 16:32N 47°35' W 122°21'0 0.0
2014-Oct-01 15:32N 47°35' W 122°21'0 0.0
2014-Oct-01 14:32N 47°35' W 122°21'0 0.0
2014-Oct-01 13:32N 47°35' W 122°21'0 0.0
2014-Oct-01 12:32N 47°35' W 122°21'0 0.0
2014-Oct-01 11:32N 47°35' W 122°21'0 0.0
2014-Oct-01 10:32N 47°35' W 122°21'0 0.0
2014-Oct-01 09:32N 47°35' W 122°21'0 0.0
2014-Oct-01 08:29N 47°35' W 122°21'0 0.0
2014-Oct-01 07:32N 47°35' W 122°21'0 0.0
2014-Oct-01 06:32N 47°35' W 122°21'0 0.0
2014-Oct-01 05:32N 47°35' W 122°21'0 0.0
2014-Oct-01 04:32N 47°35' W 122°21'0 0.0
2014-Oct-01 03:32N 47°35' W 122°21'0 0.0
2014-Oct-01 02:32N 47°35' W 122°21'0 0.0
2014-Oct-01 01:32N 47°35' W 122°21'0 0.0
2014-Oct-01 00:32N 47°35' W 122°21'0 0.0
2014-Sep-30 23:32N 47°35' W 122°21'0 0.0
2014-Sep-30 22:32N 47°35' W 122°21'0 0.0
2014-Sep-30 21:32N 47°35' W 122°21'0 0.0
2014-Sep-30 20:32N 47°35' W 122°21'0 0.0
2014-Sep-30 19:32N 47°35' W 122°21'0 0.0
2014-Sep-30 18:32N 47°35' W 122°21'0 0.0
2014-Sep-30 17:32N 47°35' W 122°21'0 0.0
2014-Sep-30 16:32N 47°35' W 122°21'0 0.0
2014-Sep-30 15:32N 47°35' W 122°21'0 0.0
2014-Sep-30 14:32N 47°35' W 122°21'0 0.0
2014-Sep-30 13:32N 47°35' W 122°21'0 0.2
2014-Sep-30 12:33N 47°35' W 122°21'3 2.8
2014-Sep-30 11:33N 47°37' W 122°24'1515.4
2014-Sep-30 10:33N 47°52' W 122°29'2019.2
2014-Sep-30 09:32N 48°09' W 122°43'2020.0
2014-Sep-30 08:33N 48°12' W 123°13'1212.3
2014-Sep-30 07:33N 48°12' W 123°31'1312.5
2014-Sep-30 06:33N 48°13' W 123°50'1212.1
2014-Sep-30 05:33N 48°17' W 124°07'1312.6
2014-Sep-30 04:32N 48°23' W 124°24'1313.0
2014-Sep-30 03:33N 48°28' W 124°42'1312.8
2014-Sep-30 02:33N 48°29' W 125°01'1313.3
2014-Sep-30 01:33N 48°29' W 125°21'1212.4
2014-Sep-30 00:33N 48°31' W 125°40'1312.7
2014-Sep-29 23:33N 48°34' W 125°58'1312.8
2014-Sep-29 22:33N 48°37' W 126°17'1312.7
2014-Sep-29 21:33N 48°40' W 126°36'  

Dump ship's entire track history